Terminal Aerodrome Forecast
Issued by NWS Sioux Falls, SD

Home | Current Version | Previous Version | Text Only | Print | Product List | Glossary On
Versions: 1 2 3 4 5 6 7 8 9 10 11 12
000
FTUS43 KFSD 171739
TAFHON
TAF
KHON 171739Z 1718/1818 21007KT P6SM SKC
     FM180000 18007KT P6SM SKC
     FM181300 22008KT P6SM FEW250
     FM181500 33011G19KT P6SM FEW250=

USA.gov is the U.S. government's official web portal to all federal, state and local government web resources and services.